createdAt,value
2023-04-16T00:01:00.372Z,50.5
2023-04-16T00:02:16.511Z,50.5
2023-04-16T00:03:32.704Z,50.5
2023-04-16T00:04:47.968Z,50.5
2023-04-16T00:06:04.170Z,50.5
2023-04-16T00:07:19.367Z,50.6
2023-04-16T00:08:35.510Z,50.5
2023-04-16T00:09:51.632Z,50.6
2023-04-16T00:11:07.768Z,50.5
2023-04-16T00:12:23.915Z,50.5
2023-04-16T00:13:40.058Z,50.6
2023-04-16T00:14:56.182Z,50.6
2023-04-16T00:16:12.313Z,50.6
2023-04-16T00:17:28.451Z,50.6
2023-04-16T00:18:44.601Z,50.6
2023-04-16T00:20:00.733Z,50.6
2023-04-16T00:21:16.861Z,50.6
2023-04-16T00:22:32.995Z,50.6
2023-04-16T00:23:49.130Z,50.6
2023-04-16T00:25:05.284Z,50.6
2023-04-16T00:26:21.403Z,50.6
2023-04-16T00:27:37.539Z,50.6
2023-04-16T00:28:53.674Z,50.6
2023-04-16T00:30:09.816Z,50.6
2023-04-16T00:31:25.958Z,50.6
2023-04-16T00:32:42.091Z,50.6
2023-04-16T00:33:58.230Z,50.6
2023-04-16T00:35:14.354Z,50.6
2023-04-16T00:36:30.498Z,50.6
2023-04-16T00:37:46.648Z,50.6
2023-04-16T00:39:02.828Z,50.6
2023-04-16T00:40:18.110Z,50.6
2023-04-16T00:41:33.339Z,50.6
2023-04-16T00:42:48.542Z,50.6
2023-04-16T00:44:03.703Z,50.6
2023-04-16T00:45:19.839Z,50.6
2023-04-16T00:46:35.976Z,50.6
2023-04-16T00:47:52.120Z,50.6
2023-04-16T00:49:08.252Z,50.6
2023-04-16T00:50:24.374Z,50.6
2023-04-16T00:51:40.529Z,50.6
2023-04-16T00:52:56.655Z,50.6
2023-04-16T00:54:12.805Z,50.6
2023-04-16T00:55:28.927Z,50.6
2023-04-16T00:56:45.054Z,50.6
2023-04-16T00:58:01.219Z,50.6
2023-04-16T00:59:17.343Z,50.6
2023-04-16T01:00:33.479Z,50.6
2023-04-16T01:01:49.602Z,50.6
2023-04-16T01:03:05.742Z,50.6
2023-04-16T01:04:21.899Z,50.6
2023-04-16T01:05:38.017Z,50.6
2023-04-16T01:06:54.161Z,50.6
2023-04-16T01:08:10.295Z,50.6
2023-04-16T01:09:26.415Z,50.6
2023-04-16T01:10:42.565Z,50.6
2023-04-16T01:11:58.711Z,50.6
2023-04-16T01:13:14.847Z,50.7
2023-04-16T01:14:30.968Z,50.7
2023-04-16T01:15:47.106Z,50.7
2023-04-16T01:17:03.246Z,50.8
2023-04-16T01:18:19.375Z,50.7
2023-04-16T01:19:35.527Z,50.7
2023-04-16T01:20:51.655Z,50.7
2023-04-16T01:22:07.780Z,50.7
2023-04-16T01:23:23.926Z,50.7
2023-04-16T01:24:40.067Z,50.7
2023-04-16T01:25:56.197Z,50.7
2023-04-16T01:27:12.341Z,50.7
2023-04-16T01:28:28.456Z,50.7
2023-04-16T01:29:44.611Z,50.7
2023-04-16T01:31:00.804Z,50.7
2023-04-16T01:32:16.013Z,50.7
2023-04-16T01:33:31.158Z,50.7
2023-04-16T01:34:47.287Z,50.7
2023-04-16T01:36:03.429Z,50.7
2023-04-16T01:37:19.567Z,50.7
2023-04-16T01:38:35.701Z,50.7
2023-04-16T01:39:51.854Z,50.7
2023-04-16T01:41:07.983Z,50.7
2023-04-16T01:42:24.105Z,50.7
2023-04-16T01:43:40.236Z,50.7
2023-04-16T01:44:56.385Z,50.7
2023-04-16T01:46:12.516Z,50.7
2023-04-16T01:47:28.668Z,50.7
2023-04-16T01:48:44.793Z,50.7
2023-04-16T01:50:00.934Z,50.7
2023-04-16T01:51:17.060Z,50.7
2023-04-16T01:52:33.201Z,50.7
2023-04-16T01:53:49.340Z,50.7
2023-04-16T01:55:05.476Z,50.7
2023-04-16T01:56:21.613Z,50.7
2023-04-16T01:57:37.731Z,50.7
2023-04-16T01:58:53.889Z,50.7
2023-04-16T02:00:10.026Z,50.7
2023-04-16T02:01:26.155Z,50.7
2023-04-16T02:02:42.280Z,50.7
2023-04-16T02:03:58.411Z,50.7
2023-04-16T02:05:14.561Z,50.7
2023-04-16T02:06:30.706Z,50.7
2023-04-16T02:07:46.839Z,50.7
2023-04-16T02:09:02.972Z,50.7
2023-04-16T02:10:19.094Z,50.7
2023-04-16T02:11:35.254Z,50.7
2023-04-16T02:12:51.375Z,50.8
2023-04-16T02:14:07.504Z,50.8
2023-04-16T02:15:23.655Z,50.8
2023-04-16T02:16:39.773Z,50.8
2023-04-16T02:17:55.920Z,50.8
2023-04-16T02:19:12.054Z,50.8
2023-04-16T02:20:28.244Z,50.8
2023-04-16T02:21:43.457Z,50.8
2023-04-16T02:22:59.596Z,50.8
2023-04-16T02:24:15.740Z,50.8
2023-04-16T02:25:31.873Z,50.8
2023-04-16T02:26:48.008Z,50.8
2023-04-16T02:28:04.136Z,50.8
2023-04-16T02:29:20.283Z,50.8
2023-04-16T02:30:36.415Z,50.9
2023-04-16T02:31:52.549Z,50.8
2023-04-16T02:33:08.687Z,50.9
2023-04-16T02:34:24.819Z,50.8
2023-04-16T02:35:40.960Z,50.8
2023-04-16T02:36:57.092Z,50.8
2023-04-16T02:38:13.228Z,50.8
2023-04-16T02:39:29.361Z,50.8
2023-04-16T02:40:45.498Z,50.8
2023-04-16T02:42:01.643Z,50.8
2023-04-16T02:43:17.770Z,50.8
2023-04-16T02:44:33.909Z,50.8
2023-04-16T02:45:50.053Z,50.9
2023-04-16T02:47:06.172Z,50.9
2023-04-16T02:48:22.315Z,50.9
2023-04-16T02:49:38.454Z,50.9
2023-04-16T02:50:54.600Z,50.8
2023-04-16T02:52:10.726Z,50.9
2023-04-16T02:53:26.910Z,50.9
2023-04-16T02:54:42.164Z,50.9
2023-04-16T02:55:57.370Z,50.9
2023-04-16T02:57:12.518Z,50.9
2023-04-16T02:58:28.639Z,50.9
2023-04-16T02:59:44.775Z,50.9
2023-04-16T03:01:00.905Z,50.9
2023-04-16T03:02:17.037Z,50.9
2023-04-16T03:03:33.187Z,50.9
2023-04-16T03:04:49.329Z,50.9
2023-04-16T03:06:05.455Z,50.9
2023-04-16T03:07:21.585Z,50.9
2023-04-16T03:08:37.717Z,50.9
2023-04-16T03:09:53.867Z,50.9
2023-04-16T03:11:10.012Z,51
2023-04-16T03:12:26.146Z,51
2023-04-16T03:13:42.284Z,50.9
2023-04-16T03:14:58.414Z,51
2023-04-16T03:16:14.558Z,51
2023-04-16T03:17:30.688Z,51
2023-04-16T03:18:46.824Z,51
2023-04-16T03:20:02.959Z,51
2023-04-16T03:21:19.095Z,51
2023-04-16T03:22:35.232Z,51
2023-04-16T03:23:51.378Z,51
2023-04-16T03:25:07.506Z,51
2023-04-16T03:26:23.645Z,51
2023-04-16T03:27:39.775Z,51
2023-04-16T03:28:55.908Z,51
2023-04-16T03:30:12.059Z,51
2023-04-16T03:31:28.179Z,51
2023-04-16T03:32:44.311Z,51
2023-04-16T03:34:00.449Z,51.1
2023-04-16T03:35:16.606Z,51
2023-04-16T03:36:32.742Z,51
2023-04-16T03:37:48.875Z,51
2023-04-16T03:39:04.998Z,51
2023-04-16T03:40:21.137Z,51
2023-04-16T03:41:37.284Z,51
2023-04-16T03:42:53.416Z,51
2023-04-16T03:44:09.613Z,51
2023-04-16T03:45:24.852Z,51
2023-04-16T03:46:40.060Z,51
2023-04-16T03:47:56.177Z,51
2023-04-16T03:49:12.317Z,51
2023-04-16T03:50:28.448Z,51
2023-04-16T03:51:44.607Z,51.1
2023-04-16T03:53:00.742Z,51
2023-04-16T03:54:16.861Z,51.1
2023-04-16T03:55:32.994Z,51.1
2023-04-16T03:56:49.142Z,51.1
2023-04-16T03:58:05.278Z,51.1
2023-04-16T03:59:21.423Z,51.1
2023-04-16T04:00:37.540Z,51.1
2023-04-16T04:01:53.684Z,51.1
2023-04-16T04:03:09.812Z,51.1
2023-04-16T04:04:25.953Z,51.1
2023-04-16T04:05:42.099Z,51.1
2023-04-16T04:06:58.236Z,51.1
2023-04-16T04:08:14.363Z,51.1
2023-04-16T04:09:30.505Z,51.1
2023-04-16T04:10:46.651Z,51
2023-04-16T04:12:02.786Z,51.1
2023-04-16T04:13:18.918Z,51.1
2023-04-16T04:14:35.041Z,51.1
2023-04-16T04:15:51.172Z,51.1
2023-04-16T04:17:07.329Z,51.1
2023-04-16T04:18:23.515Z,51.1
2023-04-16T04:19:38.775Z,51.1
2023-04-16T04:20:53.976Z,51.1
2023-04-16T04:22:10.124Z,51.1
2023-04-16T04:23:26.241Z,51.1
2023-04-16T04:24:42.378Z,51.1
2023-04-16T04:25:58.520Z,51.1
2023-04-16T04:27:14.657Z,51.1
2023-04-16T04:28:30.806Z,51.1
2023-04-16T04:29:46.929Z,51.1
2023-04-16T04:31:03.066Z,51.1
2023-04-16T04:32:19.188Z,51.2
2023-04-16T04:33:35.348Z,51.2
2023-04-16T04:34:51.474Z,51.2
2023-04-16T04:36:07.611Z,51.2
2023-04-16T04:37:23.745Z,51.2
2023-04-16T04:38:39.883Z,51.2
2023-04-16T04:39:56.035Z,51.1
2023-04-16T04:41:12.157Z,51.1
2023-04-16T04:42:28.296Z,51.1
2023-04-16T04:43:44.423Z,51.1
2023-04-16T04:45:00.559Z,51.1
2023-04-16T04:46:16.698Z,51.1
2023-04-16T04:47:32.831Z,51.1
2023-04-16T04:48:48.977Z,51.1
2023-04-16T04:50:05.117Z,51.2
2023-04-16T04:51:21.231Z,51.2
2023-04-16T04:52:37.447Z,51.1
2023-04-16T04:53:52.692Z,51.1
2023-04-16T04:55:07.902Z,51.1
2023-04-16T04:56:24.035Z,51.2
2023-04-16T04:57:40.178Z,51.2
2023-04-16T04:58:56.292Z,51.1
2023-04-16T05:00:12.433Z,51.1
2023-04-16T05:01:28.565Z,51.1
2023-04-16T05:02:44.709Z,51.2
2023-04-16T05:04:00.849Z,51.2
2023-04-16T05:05:16.986Z,51.2
2023-04-16T05:06:33.110Z,51.2
2023-04-16T05:07:49.243Z,51.2
2023-04-16T05:09:05.406Z,51.2
2023-04-16T05:10:21.531Z,51.2
2023-04-16T05:11:37.656Z,51.2
2023-04-16T05:12:53.806Z,51.2
2023-04-16T05:16:42.245Z,51.2
2023-04-16T05:17:58.391Z,51.2
2023-04-16T05:19:14.524Z,51.2
2023-04-16T05:20:30.652Z,51.2
2023-04-16T05:21:46.810Z,51.2
2023-04-16T05:23:02.936Z,51.2
2023-04-16T05:24:19.077Z,51.2
2023-04-16T05:25:35.210Z,51.2
2023-04-16T05:26:51.403Z,51.2
2023-04-16T05:28:06.641Z,51.2
2023-04-16T05:29:22.819Z,51.2
2023-04-16T05:30:38.021Z,51.1
2023-04-16T05:31:54.166Z,51.2
2023-04-16T05:33:10.310Z,51.2
2023-04-16T05:34:26.442Z,51.2
2023-04-16T05:35:42.578Z,51.2
2023-04-16T05:36:58.698Z,51.1
2023-04-16T05:38:14.850Z,51.1
2023-04-16T05:39:30.978Z,51.1
2023-04-16T05:40:47.125Z,51.2
2023-04-16T05:42:03.253Z,51.1
2023-04-16T05:43:19.378Z,51.1
2023-04-16T05:44:35.544Z,51.1
2023-04-16T05:45:51.667Z,51.1
2023-04-16T05:47:07.798Z,51.1
2023-04-16T05:48:23.935Z,51.1
2023-04-16T05:49:40.068Z,51.1
2023-04-16T05:50:56.222Z,51.1
2023-04-16T05:52:12.356Z,51.1
2023-04-16T05:53:28.478Z,51.1
2023-04-16T05:54:44.612Z,51.1
2023-04-16T05:56:00.744Z,51.1
2023-04-16T05:57:16.894Z,51.1
2023-04-16T05:58:33.035Z,51.1
2023-04-16T06:01:05.293Z,51.1
2023-04-16T06:02:21.492Z,51.1
2023-04-16T06:03:36.730Z,51.1
2023-04-16T06:04:51.924Z,51.1
2023-04-16T06:06:08.059Z,51.1
2023-04-16T06:07:24.216Z,51.1
2023-04-16T06:08:40.356Z,51
2023-04-16T06:09:56.489Z,51
2023-04-16T06:11:12.610Z,51.1
2023-04-16T06:12:28.738Z,51
2023-04-16T06:13:44.895Z,51.1
2023-04-16T06:15:01.036Z,51.1
2023-04-16T06:16:17.169Z,51.1
2023-04-16T06:17:33.290Z,51.1
2023-04-16T06:18:49.427Z,51.1
2023-04-16T06:20:05.578Z,51.1
2023-04-16T06:21:21.716Z,51.1
2023-04-16T06:22:37.840Z,51
2023-04-16T06:23:53.972Z,51.1
2023-04-16T06:25:10.117Z,51.1
2023-04-16T06:26:26.251Z,51
2023-04-16T06:27:42.384Z,51.1
2023-04-16T06:28:58.521Z,51.1
2023-04-16T06:30:14.650Z,51.1
2023-04-16T06:31:30.788Z,51.1
2023-04-16T06:32:46.931Z,51.1
2023-04-16T06:34:03.064Z,51.1
2023-04-16T06:35:19.207Z,51
2023-04-16T06:36:35.388Z,51.1
2023-04-16T06:37:50.638Z,51
2023-04-16T06:39:05.842Z,51.1
2023-04-16T06:40:21.002Z,51.1
2023-04-16T06:41:37.131Z,51.1
2023-04-16T06:42:53.266Z,51
2023-04-16T06:44:09.413Z,51.1
2023-04-16T06:45:25.548Z,51
2023-04-16T06:46:41.666Z,51
2023-04-16T06:47:57.829Z,51
2023-04-16T06:49:13.951Z,51
2023-04-16T06:50:30.084Z,51
2023-04-16T06:51:46.214Z,50.9
2023-04-16T06:53:02.363Z,51
2023-04-16T06:54:18.508Z,51
2023-04-16T06:55:34.627Z,51
2023-04-16T06:56:50.774Z,50.9
2023-04-16T06:58:06.907Z,50.9
2023-04-16T06:59:23.039Z,51
2023-04-16T07:00:39.179Z,50.9
2023-04-16T07:01:55.314Z,50.9
2023-04-16T07:03:11.439Z,50.9
2023-04-16T07:04:27.591Z,50.9
2023-04-16T07:05:43.721Z,50.9
2023-04-16T07:06:59.865Z,50.9
2023-04-16T07:08:15.993Z,50.9
2023-04-16T07:09:32.129Z,50.9
2023-04-16T07:10:48.270Z,50.9
2023-04-16T07:12:04.386Z,50.9
2023-04-16T07:13:20.542Z,50.9
2023-04-16T07:14:36.669Z,50.9
2023-04-16T07:15:52.809Z,50.9
2023-04-16T07:17:08.944Z,50.9
2023-04-16T07:18:25.083Z,50.9
2023-04-16T07:19:41.220Z,50.9
2023-04-16T07:20:57.355Z,50.8
2023-04-16T07:22:13.492Z,50.8
2023-04-16T07:23:29.620Z,50.8
2023-04-16T07:24:45.757Z,50.8
2023-04-16T07:26:01.913Z,50.8
2023-04-16T07:27:18.091Z,50.8
2023-04-16T07:28:33.344Z,50.8
2023-04-16T07:29:49.517Z,50.8
2023-04-16T07:31:04.743Z,50.8
2023-04-16T07:32:20.872Z,50.8
2023-04-16T07:33:36.994Z,50.8
2023-04-16T07:34:53.143Z,50.8
2023-04-16T07:36:09.283Z,50.8
2023-04-16T07:37:25.409Z,50.8
2023-04-16T07:38:41.549Z,50.7
2023-04-16T07:39:57.684Z,50.7
2023-04-16T07:41:13.808Z,50.7
2023-04-16T07:42:29.961Z,50.7
2023-04-16T07:43:46.088Z,50.7
2023-04-16T07:45:02.235Z,50.7
2023-04-16T07:46:18.366Z,50.7
2023-04-16T07:47:34.490Z,50.6
2023-04-16T07:48:50.648Z,50.7
2023-04-16T07:50:06.770Z,50.6
2023-04-16T07:51:22.909Z,50.6
2023-04-16T07:52:39.041Z,50.6
2023-04-16T07:53:55.176Z,50.6
2023-04-16T07:55:11.318Z,50.6
2023-04-16T07:56:27.460Z,50.6
2023-04-16T07:57:43.596Z,50.6
2023-04-16T07:58:59.719Z,50.6
2023-04-16T08:00:15.848Z,50.6
2023-04-16T08:01:32.005Z,50.6
2023-04-16T08:02:48.201Z,50.6
2023-04-16T08:04:03.395Z,50.6
2023-04-16T08:05:19.543Z,50.6
2023-04-16T08:06:35.687Z,50.6
2023-04-16T08:07:51.812Z,50.6
2023-04-16T08:09:07.960Z,50.6
2023-04-16T08:10:24.086Z,50.6
2023-04-16T08:11:40.222Z,50.6
2023-04-16T08:12:56.367Z,50.6
2023-04-16T08:14:12.506Z,50.6
2023-04-16T08:15:28.626Z,50.6
2023-04-16T08:16:44.761Z,50.6
2023-04-16T08:18:00.898Z,50.6
2023-04-16T08:19:17.052Z,50.5
2023-04-16T08:20:33.177Z,50.5
2023-04-16T08:21:49.313Z,50.5
2023-04-16T08:23:05.445Z,50.6
2023-04-16T08:24:21.578Z,50.6
2023-04-16T08:25:37.736Z,50.6
2023-04-16T08:26:53.864Z,50.6
2023-04-16T08:28:09.997Z,50.6
2023-04-16T08:29:26.138Z,50.6
2023-04-16T08:30:42.268Z,50.6
2023-04-16T08:31:58.415Z,50.6
2023-04-16T08:33:14.553Z,50.6
2023-04-16T08:34:30.686Z,50.6
2023-04-16T08:35:46.871Z,50.6
2023-04-16T08:37:02.126Z,50.6
2023-04-16T08:38:17.344Z,50.6
2023-04-16T08:39:32.494Z,50.6
2023-04-16T08:40:48.631Z,50.6
2023-04-16T08:42:04.775Z,50.6
2023-04-16T08:43:20.894Z,50.6
2023-04-16T08:44:37.038Z,50.5
2023-04-16T08:45:53.159Z,50.5
2023-04-16T08:47:09.309Z,50.5
2023-04-16T08:48:25.453Z,50.5
2023-04-16T08:49:41.581Z,50.4
2023-04-16T08:50:57.713Z,50.5
2023-04-16T08:52:13.850Z,50.4
2023-04-16T08:53:30.002Z,50.4
2023-04-16T08:54:46.130Z,50.4
2023-04-16T08:56:02.265Z,50.4
2023-04-16T08:57:18.391Z,50.4
2023-04-16T08:58:34.531Z,50.3
2023-04-16T08:59:50.672Z,50.3
2023-04-16T09:01:06.802Z,50.3
2023-04-16T09:02:22.951Z,50.2
2023-04-16T09:03:39.084Z,50.2
2023-04-16T09:04:55.211Z,50.1
2023-04-16T09:06:11.361Z,50.1
2023-04-16T09:07:27.485Z,50.1
2023-04-16T09:08:43.622Z,50.1
2023-04-16T09:09:59.760Z,50.1
2023-04-16T09:11:15.892Z,50.1
2023-04-16T09:12:32.033Z,50.1
2023-04-16T09:13:48.000Z,50.1
2023-04-16T09:15:04.311Z,50.1
2023-04-16T09:16:20.445Z,50.1
2023-04-16T09:17:36.566Z,50.1
2023-04-16T09:18:52.722Z,50.1
2023-04-16T09:20:08.846Z,50.1
2023-04-16T09:21:24.979Z,50.1
2023-04-16T09:22:41.109Z,50.1
2023-04-16T09:23:57.250Z,50.1
2023-04-16T09:25:13.398Z,50.1
2023-04-16T09:26:29.601Z,50
2023-04-16T09:27:44.826Z,50.1
2023-04-16T09:29:00.029Z,50.1
2023-04-16T09:30:16.177Z,50.1
2023-04-16T09:31:32.297Z,50.1
2023-04-16T09:32:48.434Z,50.1
2023-04-16T09:34:04.570Z,50.1
2023-04-16T09:35:20.713Z,50.2
2023-04-16T09:36:36.855Z,50.2
2023-04-16T09:37:52.994Z,50.2
2023-04-16T09:39:09.112Z,50.2
2023-04-16T09:40:25.251Z,50.2
2023-04-16T09:41:41.405Z,50.2
2023-04-16T09:42:57.537Z,50.2
2023-04-16T09:44:13.671Z,50.1
2023-04-16T09:45:29.805Z,50.1
2023-04-16T09:46:45.943Z,50.1
2023-04-16T09:48:02.077Z,50.1
2023-04-16T09:49:18.210Z,50.1
2023-04-16T09:50:34.357Z,50
2023-04-16T09:51:50.485Z,50
2023-04-16T09:53:06.620Z,49.9
2023-04-16T09:54:22.772Z,50
2023-04-16T09:55:38.890Z,49.9
2023-04-16T09:56:55.027Z,50
2023-04-16T09:58:11.171Z,50
2023-04-16T09:59:27.299Z,50
2023-04-16T10:00:43.512Z,49.9
2023-04-16T10:01:58.746Z,49.9
2023-04-16T10:03:13.950Z,49.8
2023-04-16T10:04:30.084Z,49.8
2023-04-16T10:05:46.226Z,49.8
2023-04-16T10:07:02.350Z,49.6
2023-04-16T10:08:18.487Z,49.6
2023-04-16T10:09:34.620Z,49.6
2023-04-16T10:10:50.775Z,49.6
2023-04-16T10:12:06.902Z,49.5
2023-04-16T10:13:23.032Z,49.5
2023-04-16T10:14:39.179Z,49.5
2023-04-16T10:15:55.317Z,49.5
2023-04-16T10:17:11.458Z,49.5
2023-04-16T10:18:27.594Z,49.6
2023-04-16T10:19:43.716Z,49.5
2023-04-16T10:20:59.860Z,49.5
2023-04-16T10:22:15.978Z,49.5
2023-04-16T10:23:32.138Z,49.5
2023-04-16T10:24:48.269Z,49.5
2023-04-16T10:26:04.397Z,49.5
2023-04-16T10:27:20.531Z,49.5
2023-04-16T10:28:36.669Z,49.5
2023-04-16T10:29:52.827Z,49.5
2023-04-16T10:31:08.944Z,49.5
2023-04-16T10:32:25.077Z,49.5
2023-04-16T10:33:41.216Z,49.5
2023-04-16T10:34:57.414Z,49.5
2023-04-16T10:36:12.651Z,49.5
2023-04-16T10:37:27.864Z,49.5
2023-04-16T10:38:43.983Z,49.5
2023-04-16T10:40:00.139Z,49.5
2023-04-16T10:41:16.271Z,49.5
2023-04-16T10:42:32.406Z,49.5
2023-04-16T10:43:48.545Z,49.5
2023-04-16T10:45:04.676Z,49.5
2023-04-16T10:46:20.813Z,49.5
2023-04-16T10:47:36.951Z,49.4
2023-04-16T10:48:53.080Z,49.4
2023-04-16T10:50:09.226Z,49.3
2023-04-16T10:51:25.362Z,49.3
2023-04-16T10:52:41.499Z,49.3
2023-04-16T10:53:57.629Z,49.3
2023-04-16T10:55:13.766Z,49.3
2023-04-16T10:56:29.913Z,49.3
2023-04-16T10:57:46.027Z,49.2
2023-04-16T10:59:02.190Z,49.2
2023-04-16T11:00:18.314Z,49.2
2023-04-16T11:01:34.451Z,49.1
2023-04-16T11:02:50.589Z,49.2
2023-04-16T11:04:06.723Z,49.2
2023-04-16T11:05:22.875Z,49.2
2023-04-16T11:06:38.994Z,49.2
2023-04-16T11:07:55.128Z,49.2
2023-04-16T11:09:11.326Z,49.2
2023-04-16T11:10:26.000Z,49.2
2023-04-16T11:11:41.766Z,49.2
2023-04-16T11:12:56.925Z,49.2
2023-04-16T11:14:13.069Z,49.2
2023-04-16T11:15:29.207Z,49.2
2023-04-16T11:16:45.337Z,49.2
2023-04-16T11:18:01.470Z,49.2
2023-04-16T11:19:17.608Z,49.1
2023-04-16T11:20:33.760Z,49.1
2023-04-16T11:21:49.889Z,49.1
2023-04-16T11:23:06.014Z,49.1
2023-04-16T11:24:22.153Z,49
2023-04-16T11:25:38.285Z,49
2023-04-16T11:26:54.445Z,49
2023-04-16T11:28:10.565Z,49
2023-04-16T11:29:26.713Z,49
2023-04-16T11:30:42.844Z,49
2023-04-16T11:31:58.960Z,49
2023-04-16T11:33:15.116Z,49
2023-04-16T11:34:31.257Z,49
2023-04-16T11:35:47.393Z,49
2023-04-16T11:37:03.512Z,49
2023-04-16T11:38:19.662Z,49
2023-04-16T11:39:35.795Z,49
2023-04-16T11:40:51.934Z,49.1
2023-04-16T11:42:08.057Z,49
2023-04-16T11:43:24.193Z,49.1
2023-04-16T11:44:40.340Z,49
2023-04-16T11:45:56.474Z,49.1
2023-04-16T11:47:12.608Z,49
2023-04-16T11:48:28.743Z,49
2023-04-16T11:49:44.884Z,49
2023-04-16T11:51:01.014Z,49.1
2023-04-16T11:52:17.162Z,49
2023-04-16T11:53:33.294Z,49
2023-04-16T11:54:49.439Z,49.1
2023-04-16T11:56:05.558Z,49
2023-04-16T11:57:21.696Z,49.1
2023-04-16T11:58:37.846Z,49.1
2023-04-16T11:59:54.033Z,49.1
2023-04-16T12:01:09.285Z,49.1
2023-04-16T12:02:24.494Z,49.1
2023-04-16T12:03:40.610Z,49.1
2023-04-16T12:04:56.754Z,49.1
2023-04-16T12:06:12.893Z,49.1
2023-04-16T12:07:29.015Z,49.1
2023-04-16T12:08:45.177Z,49.2
2023-04-16T12:10:01.310Z,49.2
2023-04-16T12:11:17.436Z,49.2
2023-04-16T12:12:33.578Z,49.2
2023-04-16T12:13:49.701Z,49.2
2023-04-16T12:15:05.857Z,49.2
2023-04-16T12:16:21.987Z,49.2
2023-04-16T12:17:38.115Z,49.2
2023-04-16T12:18:54.256Z,49.2
2023-04-16T12:20:10.393Z,49.1
2023-04-16T12:21:26.537Z,49.1
2023-04-16T12:22:42.664Z,49.1
2023-04-16T12:23:58.794Z,49.1
2023-04-16T12:25:14.926Z,49.2
2023-04-16T12:26:31.071Z,49.2
2023-04-16T12:27:47.222Z,49.2
2023-04-16T12:29:03.357Z,49.2
2023-04-16T12:30:19.489Z,49.2
2023-04-16T12:31:35.611Z,49.2
2023-04-16T12:32:51.754Z,49.2
2023-04-16T12:34:07.959Z,49.2
2023-04-16T12:35:23.195Z,49.2
2023-04-16T12:36:39.396Z,49.3
2023-04-16T12:37:54.595Z,49.3
2023-04-16T12:39:10.725Z,49.3
2023-04-16T12:40:26.857Z,49.3
2023-04-16T12:41:42.999Z,49.2
2023-04-16T12:42:59.126Z,49.2
2023-04-16T12:44:15.274Z,49.2
2023-04-16T12:45:31.404Z,49.2
2023-04-16T12:46:47.546Z,49.2
2023-04-16T12:48:03.678Z,49.2
2023-04-16T12:49:19.814Z,49.2
2023-04-16T12:50:35.961Z,49.2
2023-04-16T12:51:52.093Z,49.1
2023-04-16T12:53:08.229Z,49.2
2023-04-16T12:54:24.363Z,49.1
2023-04-16T12:55:40.498Z,49.1
2023-04-16T12:56:56.632Z,49.1
2023-04-16T12:58:12.782Z,49.1
2023-04-16T12:59:28.900Z,49.1
2023-04-16T13:00:45.047Z,49
2023-04-16T13:02:01.174Z,49
2023-04-16T13:03:17.318Z,49
2023-04-16T13:04:33.447Z,49
2023-04-16T13:05:49.590Z,48.9
2023-04-16T13:07:05.721Z,48.9
2023-04-16T13:08:21.859Z,48.9
2023-04-16T13:09:38.056Z,49
2023-04-16T13:10:53.313Z,49
2023-04-16T13:12:08.539Z,48.9
2023-04-16T13:13:24.667Z,49
2023-04-16T13:14:40.814Z,48.9
2023-04-16T13:15:56.934Z,49
2023-04-16T13:17:13.065Z,49
2023-04-16T13:18:29.218Z,49
2023-04-16T13:19:45.360Z,49
2023-04-16T13:21:01.487Z,49
2023-04-16T13:22:17.624Z,49.1
2023-04-16T13:23:33.754Z,49.1
2023-04-16T13:24:49.893Z,49.2
2023-04-16T13:26:06.043Z,49.2
2023-04-16T13:27:22.170Z,49.2
2023-04-16T13:28:38.302Z,49.3
2023-04-16T13:29:54.448Z,49.3
2023-04-16T13:31:10.580Z,49.2
2023-04-16T13:32:26.721Z,49.2
2023-04-16T13:33:42.850Z,49.2
2023-04-16T13:34:58.979Z,49.2
2023-04-16T13:36:15.121Z,49.2
2023-04-16T13:37:31.256Z,49.2
2023-04-16T13:38:47.406Z,49.2
2023-04-16T13:40:03.542Z,49.2
2023-04-16T13:41:19.661Z,49.2
2023-04-16T13:42:35.809Z,49.2
2023-04-16T13:43:51.992Z,49.3
2023-04-16T13:45:07.228Z,49.2
2023-04-16T13:46:22.437Z,49.2
2023-04-16T13:47:38.576Z,49.3
2023-04-16T13:48:54.729Z,49.3
2023-04-16T13:50:10.851Z,49.3
2023-04-16T13:51:26.980Z,49.3
2023-04-16T13:52:43.114Z,49.3
2023-04-16T13:53:59.252Z,49.3
2023-04-16T13:55:15.399Z,49.3
2023-04-16T13:56:31.533Z,49.3
2023-04-16T13:59:03.806Z,49.4
2023-04-16T14:00:19.941Z,49.4
2023-04-16T14:01:36.079Z,49.4
2023-04-16T14:02:52.227Z,49.4
2023-04-16T14:04:08.361Z,49.4
2023-04-16T14:05:24.494Z,49.5
2023-04-16T14:06:40.615Z,49.5
2023-04-16T14:07:56.760Z,49.5
2023-04-16T14:09:12.891Z,49.6
2023-04-16T14:10:29.031Z,49.6
2023-04-16T14:11:45.164Z,49.6
2023-04-16T14:13:01.296Z,49.7
2023-04-16T14:14:17.448Z,49.7
2023-04-16T14:15:33.587Z,49.7
2023-04-16T14:16:49.718Z,49.8
2023-04-16T14:18:05.912Z,49.8
2023-04-16T14:19:21.155Z,49.8
2023-04-16T14:20:37.327Z,49.7
2023-04-16T14:21:52.548Z,49.7
2023-04-16T14:23:08.674Z,49.8
2023-04-16T14:24:24.822Z,49.7
2023-04-16T14:25:40.964Z,49.7
2023-04-16T14:26:57.101Z,49.7
2023-04-16T14:28:13.218Z,49.7
2023-04-16T14:29:29.354Z,49.7
2023-04-16T14:30:45.516Z,49.8
2023-04-16T14:32:01.637Z,49.8
2023-04-16T14:33:17.772Z,49.8
2023-04-16T14:34:33.896Z,49.8
2023-04-16T14:35:50.047Z,49.9
2023-04-16T14:37:06.181Z,49.9
2023-04-16T14:38:22.318Z,49.9
2023-04-16T14:39:38.456Z,49.9
2023-04-16T14:40:54.580Z,49.9
2023-04-16T14:42:10.710Z,49.9
2023-04-16T14:43:26.858Z,50
2023-04-16T14:44:43.001Z,50
2023-04-16T14:45:59.127Z,50
2023-04-16T14:47:15.272Z,50
2023-04-16T14:48:31.393Z,50.1
2023-04-16T14:49:47.547Z,50.1
2023-04-16T14:51:03.679Z,50.1
2023-04-16T14:52:19.823Z,50.1
2023-04-16T14:53:36.000Z,50.1
2023-04-16T14:54:51.243Z,50.1
2023-04-16T14:56:06.459Z,50.1
2023-04-16T14:57:21.609Z,50.1
2023-04-16T14:58:37.749Z,50.1
2023-04-16T14:59:53.881Z,50.1
2023-04-16T15:01:10.024Z,50.1
2023-04-16T15:02:26.147Z,50
2023-04-16T15:03:42.275Z,50
2023-04-16T15:04:58.430Z,50
2023-04-16T15:06:14.563Z,50
2023-04-16T15:07:30.695Z,50
2023-04-16T15:08:46.840Z,50.1
2023-04-16T15:10:02.966Z,50.1
2023-04-16T15:11:19.107Z,50.1
2023-04-16T15:12:35.251Z,49.9
2023-04-16T15:13:51.374Z,49.9
2023-04-16T15:15:07.514Z,49.9
2023-04-16T15:16:23.640Z,49.9
2023-04-16T15:17:39.787Z,49.8
2023-04-16T15:18:55.927Z,49.8
2023-04-16T15:20:12.060Z,49.8
2023-04-16T15:21:28.186Z,49.7
2023-04-16T15:22:44.329Z,49.8
2023-04-16T15:24:00.484Z,49.8
2023-04-16T15:25:16.613Z,49.8
2023-04-16T15:26:32.740Z,49.8
2023-04-16T15:27:48.885Z,49.8
2023-04-16T15:29:05.012Z,49.8
2023-04-16T15:30:21.153Z,49.8
2023-04-16T15:31:37.284Z,49.8
2023-04-16T15:32:53.431Z,49.9
2023-04-16T15:34:09.560Z,49.9
2023-04-16T15:35:25.698Z,49.9
2023-04-16T15:36:41.836Z,49.9
2023-04-16T15:37:57.964Z,50
2023-04-16T15:39:14.103Z,50
2023-04-16T15:40:30.233Z,50.1
2023-04-16T15:41:46.371Z,50.1
2023-04-16T15:43:02.518Z,50.1
2023-04-16T15:44:18.702Z,50.1
2023-04-16T15:45:33.941Z,50.1
2023-04-16T15:46:49.148Z,50.1
2023-04-16T15:48:05.298Z,50.2
2023-04-16T15:49:21.415Z,50.2
2023-04-16T15:50:37.555Z,50.2
2023-04-16T15:51:53.679Z,50.2
2023-04-16T15:53:09.837Z,50.2
2023-04-16T15:54:25.969Z,50.3
2023-04-16T15:55:42.112Z,50.2
2023-04-16T15:56:58.241Z,50.2
2023-04-16T15:58:14.365Z,50.2
2023-04-16T15:59:30.509Z,50.2
2023-04-16T16:00:46.657Z,50.2
2023-04-16T16:02:02.786Z,50.2
2023-04-16T16:03:18.921Z,50.2
2023-04-16T16:04:35.054Z,50.2
2023-04-16T16:05:51.204Z,50.2
2023-04-16T16:07:07.326Z,50.3
2023-04-16T16:08:23.468Z,50.3
2023-04-16T16:09:39.609Z,50.3
2023-04-16T16:10:55.738Z,50.3
2023-04-16T16:12:11.890Z,50.3
2023-04-16T16:13:28.004Z,50.3
2023-04-16T16:14:44.142Z,50.3
2023-04-16T16:16:00.276Z,50.4
2023-04-16T16:17:16.414Z,50.4
2023-04-16T16:18:32.617Z,50.4
2023-04-16T16:19:47.864Z,50.4
2023-04-16T16:21:03.065Z,50.4
2023-04-16T16:22:19.216Z,50.4
2023-04-16T16:23:35.349Z,50.4
2023-04-16T16:24:51.467Z,50.4
2023-04-16T16:26:07.603Z,50.4
2023-04-16T16:27:23.741Z,50.4
2023-04-16T16:28:39.884Z,50.4
2023-04-16T16:29:56.019Z,50.4
2023-04-16T16:31:12.159Z,50.4
2023-04-16T16:32:28.283Z,50.5
2023-04-16T16:33:44.429Z,50.5
2023-04-16T16:35:00.575Z,50.5
2023-04-16T16:36:16.695Z,50.5
2023-04-16T16:37:32.827Z,50.5
2023-04-16T16:38:48.967Z,50.5
2023-04-16T16:40:05.102Z,50.5
2023-04-16T16:41:21.257Z,50.5
2023-04-16T16:42:37.381Z,50.5
2023-04-16T16:43:53.513Z,50.5
2023-04-16T16:45:09.658Z,50.5
2023-04-16T16:46:25.778Z,50.5
2023-04-16T16:47:41.933Z,50.5
2023-04-16T16:48:58.075Z,50.5
2023-04-16T16:50:14.205Z,50.5
2023-04-16T16:51:30.329Z,50.5
2023-04-16T16:52:46.528Z,50.6
2023-04-16T16:54:01.773Z,50.6
2023-04-16T16:55:17.963Z,50.6
2023-04-16T16:56:33.163Z,50.6
2023-04-16T16:57:49.314Z,50.6
2023-04-16T16:59:05.433Z,50.6
2023-04-16T17:00:21.579Z,50.6
2023-04-16T17:01:37.698Z,50.6
2023-04-16T17:02:53.832Z,50.6
2023-04-16T17:04:09.984Z,50.6
2023-04-16T17:05:26.112Z,50.6
2023-04-16T17:06:42.249Z,50.6